sensor_id;sensor_type;location;lat;lon;timestamp;P1;durP1;ratioP1;P2;durP2;ratioP2
3278;SDS011;1651;50.940;6.888;2023-05-07T00:00:21;6.00;;;5.40;;
3278;SDS011;1651;50.940;6.888;2023-05-07T00:02:47;6.13;;;5.53;;
3278;SDS011;1651;50.940;6.888;2023-05-07T00:05:13;6.10;;;5.60;;
3278;SDS011;1651;50.940;6.888;2023-05-07T00:07:39;6.83;;;5.10;;
3278;SDS011;1651;50.940;6.888;2023-05-07T00:10:06;7.30;;;5.83;;
3278;SDS011;1651;50.940;6.888;2023-05-07T00:12:32;5.37;;;4.87;;
3278;SDS011;1651;50.940;6.888;2023-05-07T00:14:59;5.93;;;5.30;;
3278;SDS011;1651;50.940;6.888;2023-05-07T00:17:25;7.30;;;5.43;;
3278;SDS011;1651;50.940;6.888;2023-05-07T00:19:51;5.80;;;4.80;;
3278;SDS011;1651;50.940;6.888;2023-05-07T00:22:17;7.77;;;6.00;;
3278;SDS011;1651;50.940;6.888;2023-05-07T00:24:43;6.10;;;5.30;;
3278;SDS011;1651;50.940;6.888;2023-05-07T00:27:08;11.80;;;5.43;;
3278;SDS011;1651;50.940;6.888;2023-05-07T00:29:34;6.70;;;5.57;;
3278;SDS011;1651;50.940;6.888;2023-05-07T00:32:01;5.90;;;5.30;;
3278;SDS011;1651;50.940;6.888;2023-05-07T00:34:27;7.13;;;5.30;;
3278;SDS011;1651;50.940;6.888;2023-05-07T00:36:53;6.93;;;6.00;;
3278;SDS011;1651;50.940;6.888;2023-05-07T00:39:19;6.10;;;5.40;;
3278;SDS011;1651;50.940;6.888;2023-05-07T00:41:45;7.23;;;4.83;;
3278;SDS011;1651;50.940;6.888;2023-05-07T00:44:12;5.67;;;5.17;;
3278;SDS011;1651;50.940;6.888;2023-05-07T00:46:38;6.43;;;4.80;;
3278;SDS011;1651;50.940;6.888;2023-05-07T00:49:04;6.70;;;5.10;;
3278;SDS011;1651;50.940;6.888;2023-05-07T00:51:31;4.70;;;4.30;;
3278;SDS011;1651;50.940;6.888;2023-05-07T00:53:58;5.90;;;4.17;;
3278;SDS011;1651;50.940;6.888;2023-05-07T00:56:24;4.80;;;4.40;;
3278;SDS011;1651;50.940;6.888;2023-05-07T00:58:51;5.13;;;4.20;;
3278;SDS011;1651;50.940;6.888;2023-05-07T01:01:17;5.47;;;4.33;;
3278;SDS011;1651;50.940;6.888;2023-05-07T01:03:43;5.30;;;4.80;;
3278;SDS011;1651;50.940;6.888;2023-05-07T01:06:09;5.03;;;4.33;;
3278;SDS011;1651;50.940;6.888;2023-05-07T01:08:37;4.60;;;4.20;;
3278;SDS011;1651;50.940;6.888;2023-05-07T01:11:04;5.70;;;4.30;;
3278;SDS011;1651;50.940;6.888;2023-05-07T01:13:30;5.33;;;4.70;;
3278;SDS011;1651;50.940;6.888;2023-05-07T01:15:56;7.00;;;5.23;;
3278;SDS011;1651;50.940;6.888;2023-05-07T01:18:23;5.30;;;4.33;;
3278;SDS011;1651;50.940;6.888;2023-05-07T01:20:51;4.80;;;4.30;;
3278;SDS011;1651;50.940;6.888;2023-05-07T01:23:17;4.20;;;3.90;;
3278;SDS011;1651;50.940;6.888;2023-05-07T01:25:50;5.47;;;4.23;;
3278;SDS011;1651;50.940;6.888;2023-05-07T01:28:16;4.43;;;3.60;;
3278;SDS011;1651;50.940;6.888;2023-05-07T01:30:42;4.17;;;3.87;;
3278;SDS011;1651;50.940;6.888;2023-05-07T01:33:11;6.53;;;4.77;;
3278;SDS011;1651;50.940;6.888;2023-05-07T01:35:41;3.80;;;3.50;;
3278;SDS011;1651;50.940;6.888;2023-05-07T01:38:09;6.00;;;4.00;;
3278;SDS011;1651;50.940;6.888;2023-05-07T01:40:35;4.80;;;4.00;;
3278;SDS011;1651;50.940;6.888;2023-05-07T01:43:02;6.50;;;4.00;;
3278;SDS011;1651;50.940;6.888;2023-05-07T01:45:28;4.80;;;3.77;;
3278;SDS011;1651;50.940;6.888;2023-05-07T01:47:56;4.53;;;4.13;;
3278;SDS011;1651;50.940;6.888;2023-05-07T01:50:22;4.70;;;4.23;;
3278;SDS011;1651;50.940;6.888;2023-05-07T01:52:50;6.80;;;4.67;;
3278;SDS011;1651;50.940;6.888;2023-05-07T01:55:17;5.70;;;4.47;;
3278;SDS011;1651;50.940;6.888;2023-05-07T01:57:43;4.37;;;3.93;;
3278;SDS011;1651;50.940;6.888;2023-05-07T02:00:09;4.83;;;4.30;;
3278;SDS011;1651;50.940;6.888;2023-05-07T02:02:35;7.87;;;3.80;;
3278;SDS011;1651;50.940;6.888;2023-05-07T02:05:03;5.57;;;4.60;;
3278;SDS011;1651;50.940;6.888;2023-05-07T02:07:29;4.60;;;4.20;;
3278;SDS011;1651;50.940;6.888;2023-05-07T02:09:55;5.00;;;4.33;;
3278;SDS011;1651;50.940;6.888;2023-05-07T02:12:21;4.83;;;4.43;;
3278;SDS011;1651;50.940;6.888;2023-05-07T02:14:47;5.40;;;3.70;;
3278;SDS011;1651;50.940;6.888;2023-05-07T02:17:13;5.57;;;4.00;;
3278;SDS011;1651;50.940;6.888;2023-05-07T02:19:39;4.53;;;4.13;;
3278;SDS011;1651;50.940;6.888;2023-05-07T02:22:05;4.73;;;4.30;;
3278;SDS011;1651;50.940;6.888;2023-05-07T02:24:31;4.77;;;4.37;;
3278;SDS011;1651;50.940;6.888;2023-05-07T02:26:57;4.40;;;3.90;;
3278;SDS011;1651;50.940;6.888;2023-05-07T02:29:23;4.43;;;4.13;;
3278;SDS011;1651;50.940;6.888;2023-05-07T02:31:49;4.60;;;3.73;;
3278;SDS011;1651;50.940;6.888;2023-05-07T02:34:17;5.20;;;4.20;;
3278;SDS011;1651;50.940;6.888;2023-05-07T02:36:43;4.50;;;4.10;;
3278;SDS011;1651;50.940;6.888;2023-05-07T02:39:10;5.10;;;3.83;;
3278;SDS011;1651;50.940;6.888;2023-05-07T02:41:36;5.80;;;5.23;;
3278;SDS011;1651;50.940;6.888;2023-05-07T02:44:02;5.23;;;4.43;;
3278;SDS011;1651;50.940;6.888;2023-05-07T02:46:28;5.10;;;4.70;;
3278;SDS011;1651;50.940;6.888;2023-05-07T02:51:23;6.07;;;4.03;;
3278;SDS011;1651;50.940;6.888;2023-05-07T02:53:50;6.90;;;4.30;;
3278;SDS011;1651;50.940;6.888;2023-05-07T02:56:16;4.93;;;4.53;;
3278;SDS011;1651;50.940;6.888;2023-05-07T02:58:42;5.47;;;4.20;;
3278;SDS011;1651;50.940;6.888;2023-05-07T03:01:08;5.43;;;4.10;;
3278;SDS011;1651;50.940;6.888;2023-05-07T03:03:35;5.00;;;4.50;;
3278;SDS011;1651;50.940;6.888;2023-05-07T03:06:01;4.63;;;4.23;;
3278;SDS011;1651;50.940;6.888;2023-05-07T03:08:27;4.80;;;4.30;;
3278;SDS011;1651;50.940;6.888;2023-05-07T03:10:53;5.90;;;4.73;;
3278;SDS011;1651;50.940;6.888;2023-05-07T03:13:19;9.60;;;4.87;;
3278;SDS011;1651;50.940;6.888;2023-05-07T03:15:46;8.70;;;4.70;;
3278;SDS011;1651;50.940;6.888;2023-05-07T03:18:12;4.13;;;3.73;;
3278;SDS011;1651;50.940;6.888;2023-05-07T03:20:38;4.40;;;4.00;;
3278;SDS011;1651;50.940;6.888;2023-05-07T03:23:04;4.40;;;3.93;;
3278;SDS011;1651;50.940;6.888;2023-05-07T03:25:30;4.77;;;4.13;;
3278;SDS011;1651;50.940;6.888;2023-05-07T03:27:56;5.13;;;4.63;;
3278;SDS011;1651;50.940;6.888;2023-05-07T03:30:22;8.30;;;4.43;;
3278;SDS011;1651;50.940;6.888;2023-05-07T03:32:48;4.70;;;4.30;;
3278;SDS011;1651;50.940;6.888;2023-05-07T03:35:14;5.63;;;4.60;;
3278;SDS011;1651;50.940;6.888;2023-05-07T03:37:40;5.00;;;4.50;;
3278;SDS011;1651;50.940;6.888;2023-05-07T03:40:06;6.43;;;4.30;;
3278;SDS011;1651;50.940;6.888;2023-05-07T03:42:33;4.17;;;3.77;;
3278;SDS011;1651;50.940;6.888;2023-05-07T03:44:59;4.37;;;4.00;;
3278;SDS011;1651;50.940;6.888;2023-05-07T03:47:25;5.77;;;4.13;;
3278;SDS011;1651;50.940;6.888;2023-05-07T03:49:51;5.13;;;4.57;;
3278;SDS011;1651;50.940;6.888;2023-05-07T03:52:18;5.20;;;4.13;;
3278;SDS011;1651;50.940;6.888;2023-05-07T03:54:52;4.90;;;4.20;;
3278;SDS011;1651;50.940;6.888;2023-05-07T03:57:18;4.13;;;3.73;;
3278;SDS011;1651;50.940;6.888;2023-05-07T03:59:44;4.47;;;4.07;;
3278;SDS011;1651;50.940;6.888;2023-05-07T04:02:10;5.27;;;4.20;;
3278;SDS011;1651;50.940;6.888;2023-05-07T04:04:36;4.83;;;4.20;;
3278;SDS011;1651;50.940;6.888;2023-05-07T04:07:02;4.73;;;4.33;;
3278;SDS011;1651;50.940;6.888;2023-05-07T04:09:29;4.37;;;3.97;;
3278;SDS011;1651;50.940;6.888;2023-05-07T04:11:55;6.60;;;4.40;;
3278;SDS011;1651;50.940;6.888;2023-05-07T04:14:21;4.90;;;4.40;;
3278;SDS011;1651;50.940;6.888;2023-05-07T04:16:47;4.30;;;3.90;;
3278;SDS011;1651;50.940;6.888;2023-05-07T04:19:13;5.33;;;4.47;;
3278;SDS011;1651;50.940;6.888;2023-05-07T04:21:39;5.30;;;4.80;;
3278;SDS011;1651;50.940;6.888;2023-05-07T04:24:05;9.13;;;4.30;;
3278;SDS011;1651;50.940;6.888;2023-05-07T04:26:31;8.80;;;4.63;;
3278;SDS011;1651;50.940;6.888;2023-05-07T04:28:57;9.43;;;4.40;;
3278;SDS011;1651;50.940;6.888;2023-05-07T04:31:24;4.67;;;4.03;;
3278;SDS011;1651;50.940;6.888;2023-05-07T04:33:50;5.37;;;4.00;;
3278;SDS011;1651;50.940;6.888;2023-05-07T04:36:16;5.20;;;4.23;;
3278;SDS011;1651;50.940;6.888;2023-05-07T04:38:42;5.77;;;5.07;;
3278;SDS011;1651;50.940;6.888;2023-05-07T04:41:09;4.40;;;4.00;;
3278;SDS011;1651;50.940;6.888;2023-05-07T04:43:35;3.60;;;3.30;;
3278;SDS011;1651;50.940;6.888;2023-05-07T04:46:01;3.43;;;3.13;;
3278;SDS011;1651;50.940;6.888;2023-05-07T04:48:26;5.40;;;4.00;;
3278;SDS011;1651;50.940;6.888;2023-05-07T04:50:53;3.40;;;3.10;;
3278;SDS011;1651;50.940;6.888;2023-05-07T04:53:20;3.30;;;3.00;;
3278;SDS011;1651;50.940;6.888;2023-05-07T04:55:46;5.20;;;3.30;;
3278;SDS011;1651;50.940;6.888;2023-05-07T04:58:14;4.33;;;3.77;;
3278;SDS011;1651;50.940;6.888;2023-05-07T05:00:40;4.00;;;3.40;;
3278;SDS011;1651;50.940;6.888;2023-05-07T05:03:07;4.57;;;3.13;;
3278;SDS011;1651;50.940;6.888;2023-05-07T05:05:33;3.70;;;3.40;;
3278;SDS011;1651;50.940;6.888;2023-05-07T05:07:59;3.40;;;3.10;;
3278;SDS011;1651;50.940;6.888;2023-05-07T05:10:25;4.40;;;3.50;;
3278;SDS011;1651;50.940;6.888;2023-05-07T05:12:51;3.50;;;3.20;;
3278;SDS011;1651;50.940;6.888;2023-05-07T05:15:17;2.80;;;2.60;;
3278;SDS011;1651;50.940;6.888;2023-05-07T05:17:43;4.80;;;3.10;;
3278;SDS011;1651;50.940;6.888;2023-05-07T05:20:09;2.70;;;2.50;;
3278;SDS011;1651;50.940;6.888;2023-05-07T05:22:36;2.63;;;2.43;;
3278;SDS011;1651;50.940;6.888;2023-05-07T05:25:02;3.10;;;2.30;;
3278;SDS011;1651;50.940;6.888;2023-05-07T05:27:28;4.83;;;2.40;;
3278;SDS011;1651;50.940;6.888;2023-05-07T05:29:55;3.93;;;2.73;;
3278;SDS011;1651;50.940;6.888;2023-05-07T05:32:21;4.30;;;3.00;;
3278;SDS011;1651;50.940;6.888;2023-05-07T05:34:47;2.80;;;2.37;;
3278;SDS011;1651;50.940;6.888;2023-05-07T05:37:13;2.90;;;2.60;;
3278;SDS011;1651;50.940;6.888;2023-05-07T05:39:39;2.77;;;2.30;;
3278;SDS011;1651;50.940;6.888;2023-05-07T05:42:05;4.43;;;2.60;;
3278;SDS011;1651;50.940;6.888;2023-05-07T05:44:31;2.60;;;2.40;;
3278;SDS011;1651;50.940;6.888;2023-05-07T05:46:57;3.53;;;2.50;;
3278;SDS011;1651;50.940;6.888;2023-05-07T05:49:24;2.80;;;2.47;;
3278;SDS011;1651;50.940;6.888;2023-05-07T05:51:50;3.20;;;2.80;;
3278;SDS011;1651;50.940;6.888;2023-05-07T05:54:16;3.17;;;2.57;;
3278;SDS011;1651;50.940;6.888;2023-05-07T05:56:42;3.23;;;2.93;;
3278;SDS011;1651;50.940;6.888;2023-05-07T05:59:08;3.17;;;2.87;;
3278;SDS011;1651;50.940;6.888;2023-05-07T06:01:34;2.50;;;2.30;;
3278;SDS011;1651;50.940;6.888;2023-05-07T06:04:00;3.10;;;2.40;;
3278;SDS011;1651;50.940;6.888;2023-05-07T06:06:26;3.50;;;2.83;;
3278;SDS011;1651;50.940;6.888;2023-05-07T06:08:53;2.63;;;2.40;;
3278;SDS011;1651;50.940;6.888;2023-05-07T06:11:19;2.77;;;2.57;;
3278;SDS011;1651;50.940;6.888;2023-05-07T06:13:47;3.13;;;2.43;;
3278;SDS011;1651;50.940;6.888;2023-05-07T06:16:17;2.53;;;2.33;;
3278;SDS011;1651;50.940;6.888;2023-05-07T06:18:43;6.50;;;2.30;;
3278;SDS011;1651;50.940;6.888;2023-05-07T06:21:11;2.70;;;2.20;;
3278;SDS011;1651;50.940;6.888;2023-05-07T06:23:37;2.67;;;2.47;;
3278;SDS011;1651;50.940;6.888;2023-05-07T06:26:03;5.93;;;2.10;;
3278;SDS011;1651;50.940;6.888;2023-05-07T06:28:29;3.50;;;2.30;;
3278;SDS011;1651;50.940;6.888;2023-05-07T06:31:16;3.33;;;3.03;;
3278;SDS011;1651;50.940;6.888;2023-05-07T06:33:44;3.00;;;1.93;;
3278;SDS011;1651;50.940;6.888;2023-05-07T06:36:10;3.03;;;1.90;;
3278;SDS011;1651;50.940;6.888;2023-05-07T06:38:36;2.57;;;2.00;;
3278;SDS011;1651;50.940;6.888;2023-05-07T06:41:02;4.37;;;2.30;;
3278;SDS011;1651;50.940;6.888;2023-05-07T06:43:28;3.30;;;2.40;;
3278;SDS011;1651;50.940;6.888;2023-05-07T06:45:54;2.53;;;2.30;;
3278;SDS011;1651;50.940;6.888;2023-05-07T06:48:20;2.43;;;2.23;;
3278;SDS011;1651;50.940;6.888;2023-05-07T06:50:46;6.63;;;2.80;;
3278;SDS011;1651;50.940;6.888;2023-05-07T06:53:12;4.30;;;2.70;;
3278;SDS011;1651;50.940;6.888;2023-05-07T06:55:38;2.10;;;1.90;;
3278;SDS011;1651;50.940;6.888;2023-05-07T06:58:04;2.80;;;2.17;;
3278;SDS011;1651;50.940;6.888;2023-05-07T07:00:30;2.83;;;2.63;;
3278;SDS011;1651;50.940;6.888;2023-05-07T07:02:56;2.60;;;2.40;;
3278;SDS011;1651;50.940;6.888;2023-05-07T07:05:23;2.37;;;2.17;;
3278;SDS011;1651;50.940;6.888;2023-05-07T07:07:51;2.47;;;2.17;;
3278;SDS011;1651;50.940;6.888;2023-05-07T07:10:21;2.43;;;2.00;;
3278;SDS011;1651;50.940;6.888;2023-05-07T07:12:47;2.20;;;2.00;;
3278;SDS011;1651;50.940;6.888;2023-05-07T07:15:13;1.97;;;1.77;;
3278;SDS011;1651;50.940;6.888;2023-05-07T07:17:40;3.87;;;2.10;;
3278;SDS011;1651;50.940;6.888;2023-05-07T07:20:06;1.83;;;1.73;;
3278;SDS011;1651;50.940;6.888;2023-05-07T07:22:32;1.80;;;1.57;;
3278;SDS011;1651;50.940;6.888;2023-05-07T07:24:58;2.67;;;1.70;;
3278;SDS011;1651;50.940;6.888;2023-05-07T07:27:25;2.10;;;1.90;;
3278;SDS011;1651;50.940;6.888;2023-05-07T07:29:51;2.00;;;1.80;;
3278;SDS011;1651;50.940;6.888;2023-05-07T07:32:17;1.67;;;1.57;;
3278;SDS011;1651;50.940;6.888;2023-05-07T07:34:44;1.87;;;1.60;;
3278;SDS011;1651;50.940;6.888;2023-05-07T07:37:10;2.93;;;2.73;;
3278;SDS011;1651;50.940;6.888;2023-05-07T07:39:36;5.33;;;1.90;;
3278;SDS011;1651;50.940;6.888;2023-05-07T07:42:06;2.17;;;1.97;;
3278;SDS011;1651;50.940;6.888;2023-05-07T07:44:32;2.33;;;1.73;;
3278;SDS011;1651;50.940;6.888;2023-05-07T07:46:58;2.13;;;1.90;;
3278;SDS011;1651;50.940;6.888;2023-05-07T07:49:24;2.33;;;2.00;;
3278;SDS011;1651;50.940;6.888;2023-05-07T07:51:50;2.10;;;1.87;;
3278;SDS011;1651;50.940;6.888;2023-05-07T07:54:16;2.23;;;1.80;;
3278;SDS011;1651;50.940;6.888;2023-05-07T07:56:42;1.80;;;1.70;;
3278;SDS011;1651;50.940;6.888;2023-05-07T07:59:08;2.30;;;2.00;;
3278;SDS011;1651;50.940;6.888;2023-05-07T08:01:34;2.20;;;2.00;;
3278;SDS011;1651;50.940;6.888;2023-05-07T08:04:00;2.23;;;1.80;;
3278;SDS011;1651;50.940;6.888;2023-05-07T08:06:28;3.57;;;2.30;;
3278;SDS011;1651;50.940;6.888;2023-05-07T08:08:55;1.90;;;1.73;;
3278;SDS011;1651;50.940;6.888;2023-05-07T08:11:21;2.83;;;2.10;;
3278;SDS011;1651;50.940;6.888;2023-05-07T08:13:53;2.50;;;2.30;;
3278;SDS011;1651;50.940;6.888;2023-05-07T08:16:25;3.67;;;1.93;;
3278;SDS011;1651;50.940;6.888;2023-05-07T08:18:52;2.57;;;2.20;;
3278;SDS011;1651;50.940;6.888;2023-05-07T08:21:19;1.97;;;1.87;;
3278;SDS011;1651;50.940;6.888;2023-05-07T08:23:45;2.00;;;1.83;;
3278;SDS011;1651;50.940;6.888;2023-05-07T08:26:11;2.27;;;2.00;;
3278;SDS011;1651;50.940;6.888;2023-05-07T08:28:38;2.20;;;2.00;;
3278;SDS011;1651;50.940;6.888;2023-05-07T08:31:04;1.93;;;1.73;;
3278;SDS011;1651;50.940;6.888;2023-05-07T08:33:30;2.00;;;1.73;;
3278;SDS011;1651;50.940;6.888;2023-05-07T08:35:56;2.00;;;1.70;;
3278;SDS011;1651;50.940;6.888;2023-05-07T08:38:23;1.93;;;1.63;;
3278;SDS011;1651;50.940;6.888;2023-05-07T08:40:49;2.33;;;2.13;;
3278;SDS011;1651;50.940;6.888;2023-05-07T08:43:15;4.03;;;2.70;;
3278;SDS011;1651;50.940;6.888;2023-05-07T08:45:41;3.10;;;2.10;;
3278;SDS011;1651;50.940;6.888;2023-05-07T08:48:16;3.37;;;2.20;;
3278;SDS011;1651;50.940;6.888;2023-05-07T08:50:43;2.17;;;1.80;;
3278;SDS011;1651;50.940;6.888;2023-05-07T08:53:09;3.20;;;2.00;;
3278;SDS011;1651;50.940;6.888;2023-05-07T08:55:35;2.53;;;1.90;;
3278;SDS011;1651;50.940;6.888;2023-05-07T08:58:01;3.50;;;2.40;;
3278;SDS011;1651;50.940;6.888;2023-05-07T09:00:27;3.60;;;1.90;;
3278;SDS011;1651;50.940;6.888;2023-05-07T09:02:53;2.07;;;1.97;;
3278;SDS011;1651;50.940;6.888;2023-05-07T09:05:19;2.63;;;2.43;;
3278;SDS011;1651;50.940;6.888;2023-05-07T09:07:45;2.03;;;1.83;;
3278;SDS011;1651;50.940;6.888;2023-05-07T09:10:12;2.00;;;1.90;;
3278;SDS011;1651;50.940;6.888;2023-05-07T09:12:39;3.00;;;1.93;;
3278;SDS011;1651;50.940;6.888;2023-05-07T09:15:06;2.03;;;1.87;;
3278;SDS011;1651;50.940;6.888;2023-05-07T09:17:32;3.00;;;2.00;;
3278;SDS011;1651;50.940;6.888;2023-05-07T09:20:06;3.53;;;1.60;;
3278;SDS011;1651;50.940;6.888;2023-05-07T09:22:32;1.93;;;1.70;;
3278;SDS011;1651;50.940;6.888;2023-05-07T09:24:58;2.97;;;2.30;;
3278;SDS011;1651;50.940;6.888;2023-05-07T09:27:25;1.70;;;1.60;;
3278;SDS011;1651;50.940;6.888;2023-05-07T09:29:53;2.40;;;2.07;;
3278;SDS011;1651;50.940;6.888;2023-05-07T09:32:19;3.03;;;1.53;;
3278;SDS011;1651;50.940;6.888;2023-05-07T09:34:45;2.47;;;1.80;;
3278;SDS011;1651;50.940;6.888;2023-05-07T09:37:12;2.77;;;2.20;;
3278;SDS011;1651;50.940;6.888;2023-05-07T09:39:42;2.27;;;1.80;;
3278;SDS011;1651;50.940;6.888;2023-05-07T09:42:09;2.57;;;1.80;;
3278;SDS011;1651;50.940;6.888;2023-05-07T09:44:36;2.70;;;1.60;;
3278;SDS011;1651;50.940;6.888;2023-05-07T09:47:04;1.73;;;1.60;;
3278;SDS011;1651;50.940;6.888;2023-05-07T09:49:30;1.80;;;1.70;;
3278;SDS011;1651;50.940;6.888;2023-05-07T09:51:59;1.50;;;1.30;;
3278;SDS011;1651;50.940;6.888;2023-05-07T09:54:26;1.90;;;1.77;;
3278;SDS011;1651;50.940;6.888;2023-05-07T09:56:55;4.33;;;2.00;;
3278;SDS011;1651;50.940;6.888;2023-05-07T09:59:22;4.27;;;1.93;;
3278;SDS011;1651;50.940;6.888;2023-05-07T10:01:48;2.73;;;1.87;;
3278;SDS011;1651;50.940;6.888;2023-05-07T10:04:14;3.20;;;2.40;;
3278;SDS011;1651;50.940;6.888;2023-05-07T10:06:41;4.27;;;2.40;;
3278;SDS011;1651;50.940;6.888;2023-05-07T10:09:08;2.03;;;1.83;;
3278;SDS011;1651;50.940;6.888;2023-05-07T10:11:36;2.37;;;2.07;;
3278;SDS011;1651;50.940;6.888;2023-05-07T10:14:02;2.13;;;1.87;;
3278;SDS011;1651;50.940;6.888;2023-05-07T10:16:31;2.27;;;2.07;;
3278;SDS011;1651;50.940;6.888;2023-05-07T10:18:58;5.73;;;2.00;;
3278;SDS011;1651;50.940;6.888;2023-05-07T10:21:24;1.90;;;1.70;;
3278;SDS011;1651;50.940;6.888;2023-05-07T10:23:59;2.07;;;1.87;;
3278;SDS011;1651;50.940;6.888;2023-05-07T10:26:27;5.67;;;2.73;;
3278;SDS011;1651;50.940;6.888;2023-05-07T10:28:56;1.80;;;1.70;;
3278;SDS011;1651;50.940;6.888;2023-05-07T10:33:49;2.90;;;2.43;;
3278;SDS011;1651;50.940;6.888;2023-05-07T10:36:16;1.50;;;1.40;;
3278;SDS011;1651;50.940;6.888;2023-05-07T10:38:43;1.73;;;1.63;;
3278;SDS011;1651;50.940;6.888;2023-05-07T10:41:09;3.10;;;1.93;;
3278;SDS011;1651;50.940;6.888;2023-05-07T10:43:39;1.93;;;1.73;;
3278;SDS011;1651;50.940;6.888;2023-05-07T10:46:24;1.90;;;1.80;;
3278;SDS011;1651;50.940;6.888;2023-05-07T10:51:30;2.00;;;1.67;;
3278;SDS011;1651;50.940;6.888;2023-05-07T10:56:39;2.20;;;2.00;;
3278;SDS011;1651;50.940;6.888;2023-05-07T11:04:22;2.90;;;1.90;;
3278;SDS011;1651;50.940;6.888;2023-05-07T11:13:03;2.07;;;1.87;;
3278;SDS011;1651;50.940;6.888;2023-05-07T11:15:09;2.40;;;1.70;;
3278;SDS011;1651;50.940;6.888;2023-05-07T11:17:51;1.73;;;1.60;;
3278;SDS011;1651;50.940;6.888;2023-05-07T11:20:18;2.20;;;2.00;;
3278;SDS011;1651;50.940;6.888;2023-05-07T11:22:44;2.13;;;1.67;;
3278;SDS011;1651;50.940;6.888;2023-05-07T11:25:14;5.53;;;2.63;;
3278;SDS011;1651;50.940;6.888;2023-05-07T11:27:43;4.00;;;1.93;;
3278;SDS011;1651;50.940;6.888;2023-05-07T11:30:09;3.60;;;2.03;;
3278;SDS011;1651;50.940;6.888;2023-05-07T11:32:36;2.80;;;2.43;;
3278;SDS011;1651;50.940;6.888;2023-05-07T11:35:02;3.10;;;1.83;;
3278;SDS011;1651;50.940;6.888;2023-05-07T11:37:28;1.57;;;1.43;;
3278;SDS011;1651;50.940;6.888;2023-05-07T11:40:05;2.83;;;2.00;;
3278;SDS011;1651;50.940;6.888;2023-05-07T11:42:32;2.47;;;1.93;;
3278;SDS011;1651;50.940;6.888;2023-05-07T11:44:59;1.83;;;1.43;;
3278;SDS011;1651;50.940;6.888;2023-05-07T11:47:26;4.47;;;2.07;;
3278;SDS011;1651;50.940;6.888;2023-05-07T11:49:52;1.60;;;1.50;;
3278;SDS011;1651;50.940;6.888;2023-05-07T11:52:20;2.70;;;1.50;;
3278;SDS011;1651;50.940;6.888;2023-05-07T11:54:50;3.63;;;1.47;;
3278;SDS011;1651;50.940;6.888;2023-05-07T11:57:16;2.17;;;1.73;;
3278;SDS011;1651;50.940;6.888;2023-05-07T11:59:42;2.73;;;1.87;;
3278;SDS011;1651;50.940;6.888;2023-05-07T12:02:16;3.00;;;1.70;;
3278;SDS011;1651;50.940;6.888;2023-05-07T12:04:42;2.93;;;2.17;;
3278;SDS011;1651;50.940;6.888;2023-05-07T12:07:12;2.40;;;1.90;;
3278;SDS011;1651;50.940;6.888;2023-05-07T12:09:38;2.80;;;1.87;;
3278;SDS011;1651;50.940;6.888;2023-05-07T12:12:05;1.90;;;1.67;;
3278;SDS011;1651;50.940;6.888;2023-05-07T12:14:31;2.33;;;1.40;;
3278;SDS011;1651;50.940;6.888;2023-05-07T12:16:57;1.70;;;1.60;;
3278;SDS011;1651;50.940;6.888;2023-05-07T12:19:26;1.60;;;1.50;;
3278;SDS011;1651;50.940;6.888;2023-05-07T12:21:52;3.63;;;2.20;;
3278;SDS011;1651;50.940;6.888;2023-05-07T12:24:18;2.10;;;1.63;;
3278;SDS011;1651;50.940;6.888;2023-05-07T12:26:44;3.27;;;1.87;;
3278;SDS011;1651;50.940;6.888;2023-05-07T12:29:10;1.60;;;1.50;;
3278;SDS011;1651;50.940;6.888;2023-05-07T12:31:35;1.63;;;1.50;;
3278;SDS011;1651;50.940;6.888;2023-05-07T12:34:02;1.60;;;1.50;;
3278;SDS011;1651;50.940;6.888;2023-05-07T12:36:36;1.70;;;1.60;;
3278;SDS011;1651;50.940;6.888;2023-05-07T12:39:03;3.67;;;1.50;;
3278;SDS011;1651;50.940;6.888;2023-05-07T12:41:30;2.70;;;1.73;;
3278;SDS011;1651;50.940;6.888;2023-05-07T12:43:56;2.30;;;1.60;;
3278;SDS011;1651;50.940;6.888;2023-05-07T12:46:23;5.10;;;2.10;;
3278;SDS011;1651;50.940;6.888;2023-05-07T12:48:49;2.10;;;1.60;;
3278;SDS011;1651;50.940;6.888;2023-05-07T12:51:15;1.90;;;1.70;;
3278;SDS011;1651;50.940;6.888;2023-05-07T12:53:41;2.27;;;1.80;;
3278;SDS011;1651;50.940;6.888;2023-05-07T12:56:07;2.10;;;1.90;;
3278;SDS011;1651;50.940;6.888;2023-05-07T12:58:34;3.23;;;1.83;;
3278;SDS011;1651;50.940;6.888;2023-05-07T13:01:07;2.93;;;2.00;;
3278;SDS011;1651;50.940;6.888;2023-05-07T13:03:35;1.87;;;1.77;;
3278;SDS011;1651;50.940;6.888;2023-05-07T13:06:02;4.90;;;1.90;;
3278;SDS011;1651;50.940;6.888;2023-05-07T13:10:55;2.40;;;2.20;;
3278;SDS011;1651;50.940;6.888;2023-05-07T13:13:21;2.70;;;2.10;;
3278;SDS011;1651;50.940;6.888;2023-05-07T13:15:47;2.43;;;2.20;;
3278;SDS011;1651;50.940;6.888;2023-05-07T13:18:13;3.57;;;2.50;;
3278;SDS011;1651;50.940;6.888;2023-05-07T13:20:39;2.70;;;2.50;;
3278;SDS011;1651;50.940;6.888;2023-05-07T13:23:05;2.47;;;2.00;;
3278;SDS011;1651;50.940;6.888;2023-05-07T13:25:31;2.40;;;2.20;;
3278;SDS011;1651;50.940;6.888;2023-05-07T13:27:57;2.70;;;2.50;;
3278;SDS011;1651;50.940;6.888;2023-05-07T13:30:23;2.50;;;2.20;;
3278;SDS011;1651;50.940;6.888;2023-05-07T13:32:49;3.60;;;2.67;;
3278;SDS011;1651;50.940;6.888;2023-05-07T13:35:17;4.70;;;3.00;;
3278;SDS011;1651;50.940;6.888;2023-05-07T13:37:43;2.67;;;2.13;;
3278;SDS011;1651;50.940;6.888;2023-05-07T13:40:10;2.60;;;2.40;;
3278;SDS011;1651;50.940;6.888;2023-05-07T13:42:36;1.93;;;1.73;;
3278;SDS011;1651;50.940;6.888;2023-05-07T13:45:02;2.80;;;1.90;;
3278;SDS011;1651;50.940;6.888;2023-05-07T13:47:30;2.83;;;2.43;;
3278;SDS011;1651;50.940;6.888;2023-05-07T13:49:56;2.30;;;2.10;;
3278;SDS011;1651;50.940;6.888;2023-05-07T13:52:22;2.47;;;2.27;;
3278;SDS011;1651;50.940;6.888;2023-05-07T13:54:48;2.20;;;1.73;;
3278;SDS011;1651;50.940;6.888;2023-05-07T13:57:14;2.33;;;2.10;;
3278;SDS011;1651;50.940;6.888;2023-05-07T13:59:40;2.47;;;2.27;;
3278;SDS011;1651;50.940;6.888;2023-05-07T14:02:06;2.40;;;2.20;;
3278;SDS011;1651;50.940;6.888;2023-05-07T14:04:35;3.27;;;2.37;;
3278;SDS011;1651;50.940;6.888;2023-05-07T14:07:01;2.37;;;2.17;;
3278;SDS011;1651;50.940;6.888;2023-05-07T14:09:27;1.93;;;1.80;;
3278;SDS011;1651;50.940;6.888;2023-05-07T14:11:53;3.67;;;2.37;;
3278;SDS011;1651;50.940;6.888;2023-05-07T14:14:19;2.23;;;2.03;;
3278;SDS011;1651;50.940;6.888;2023-05-07T14:16:45;2.50;;;2.30;;
3278;SDS011;1651;50.940;6.888;2023-05-07T14:19:11;3.00;;;2.53;;
3278;SDS011;1651;50.940;6.888;2023-05-07T14:21:37;3.20;;;2.40;;
3278;SDS011;1651;50.940;6.888;2023-05-07T14:24:05;2.83;;;2.60;;
3278;SDS011;1651;50.940;6.888;2023-05-07T14:26:32;3.23;;;2.60;;
3278;SDS011;1651;50.940;6.888;2023-05-07T14:28:58;2.87;;;2.53;;
3278;SDS011;1651;50.940;6.888;2023-05-07T14:31:24;2.60;;;2.40;;
3278;SDS011;1651;50.940;6.888;2023-05-07T14:33:50;3.50;;;3.20;;
3278;SDS011;1651;50.940;6.888;2023-05-07T14:36:17;3.30;;;2.53;;
3278;SDS011;1651;50.940;6.888;2023-05-07T14:38:45;3.90;;;2.97;;
3278;SDS011;1651;50.940;6.888;2023-05-07T14:41:11;2.97;;;2.67;;
3278;SDS011;1651;50.940;6.888;2023-05-07T14:43:37;7.77;;;2.70;;
3278;SDS011;1651;50.940;6.888;2023-05-07T14:46:03;2.90;;;2.37;;
3278;SDS011;1651;50.940;6.888;2023-05-07T14:48:30;7.93;;;3.53;;
3278;SDS011;1651;50.940;6.888;2023-05-07T14:50:56;6.57;;;3.33;;
3278;SDS011;1651;50.940;6.888;2023-05-07T14:53:22;4.87;;;2.97;;
3278;SDS011;1651;50.940;6.888;2023-05-07T14:55:48;2.83;;;2.57;;
3278;SDS011;1651;50.940;6.888;2023-05-07T14:58:14;5.43;;;3.63;;
3278;SDS011;1651;50.940;6.888;2023-05-07T15:00:40;6.57;;;3.47;;
3278;SDS011;1651;50.940;6.888;2023-05-07T15:03:07;4.40;;;2.97;;
3278;SDS011;1651;50.940;6.888;2023-05-07T15:05:34;5.60;;;2.23;;
3278;SDS011;1651;50.940;6.888;2023-05-07T15:08:00;3.80;;;1.90;;
3278;SDS011;1651;50.940;6.888;2023-05-07T15:10:26;2.53;;;2.03;;
3278;SDS011;1651;50.940;6.888;2023-05-07T15:12:52;3.10;;;1.97;;
3278;SDS011;1651;50.940;6.888;2023-05-07T15:15:18;2.30;;;2.10;;
3278;SDS011;1651;50.940;6.888;2023-05-07T15:17:44;2.40;;;2.20;;
3278;SDS011;1651;50.940;6.888;2023-05-07T15:20:10;2.50;;;2.17;;
3278;SDS011;1651;50.940;6.888;2023-05-07T15:22:36;2.30;;;2.07;;
3278;SDS011;1651;50.940;6.888;2023-05-07T15:25:02;2.60;;;2.40;;
3278;SDS011;1651;50.940;6.888;2023-05-07T15:27:29;4.60;;;2.70;;
3278;SDS011;1651;50.940;6.888;2023-05-07T15:29:55;3.97;;;3.10;;
3278;SDS011;1651;50.940;6.888;2023-05-07T15:32:21;3.00;;;2.70;;
3278;SDS011;1651;50.940;6.888;2023-05-07T15:34:47;2.83;;;2.50;;